createdAt,value
2019-04-25T00:02:01.871Z,69.53
2019-04-25T00:04:31.531Z,66.57
2019-04-25T00:07:00.065Z,68.30
2019-04-25T00:09:31.722Z,72.07
2019-04-25T00:12:00.299Z,68.27
2019-04-25T00:14:31.490Z,70.07
2019-04-25T00:17:01.609Z,68.33
2019-04-25T00:19:31.666Z,71.53
2019-04-25T00:22:02.125Z,69.87
2019-04-25T00:24:34.859Z,69.03
2019-04-25T00:27:03.535Z,68.97
2019-04-25T00:29:32.002Z,68.07
2019-04-25T00:32:01.656Z,67.37
2019-04-25T00:34:31.661Z,67.07
2019-04-25T00:37:02.323Z,75.33
2019-04-25T00:39:31.956Z,69.67
2019-04-25T00:42:02.201Z,69.30
2019-04-25T00:44:31.934Z,70.80
2019-04-25T00:47:02.309Z,67.00
2019-04-25T00:49:32.090Z,65.40
2019-04-25T00:52:01.977Z,79.47
2019-04-25T00:54:31.366Z,68.93
2019-04-25T00:56:59.975Z,81.00
2019-04-25T00:59:43.902Z,66.70
2019-04-25T01:02:29.334Z,68.80
2019-04-25T01:04:57.771Z,68.83
2019-04-25T01:07:26.182Z,70.17
2019-04-25T01:09:54.687Z,64.90
2019-04-25T01:12:23.173Z,68.00
2019-04-25T01:14:52.813Z,73.83
2019-04-25T01:17:22.943Z,66.10
2019-04-25T01:19:51.434Z,66.00
2019-04-25T01:22:19.841Z,73.67
2019-04-25T01:24:49.327Z,66.73
2019-04-25T01:27:17.975Z,65.43
2019-04-25T01:29:47.778Z,68.73
2019-04-25T01:32:17.957Z,68.40
2019-04-25T01:34:50.901Z,67.83
2019-04-25T01:37:23.950Z,71.90
2019-04-25T01:39:55.309Z,73.00
2019-04-25T01:42:34.870Z,72.73
2019-04-25T01:45:04.151Z,80.67
2019-04-25T01:47:33.646Z,74.53
2019-04-25T01:50:03.829Z,62.17
2019-04-25T01:52:33.452Z,75.10
2019-04-25T01:55:03.474Z,62.20
2019-04-25T01:57:33.657Z,63.97
2019-04-25T02:00:03.920Z,61.57
2019-04-25T02:02:33.569Z,58.43
2019-04-25T02:05:03.988Z,55.80
2019-04-25T02:07:33.358Z,56.77
2019-04-25T02:10:03.661Z,55.67
2019-04-25T02:12:33.905Z,50.00
2019-04-25T02:15:05.953Z,50.30
2019-04-25T02:17:34.046Z,54.43
2019-04-25T02:20:04.489Z,49.97
2019-04-25T02:22:33.952Z,51.10
2019-04-25T02:25:04.561Z,47.77
2019-04-25T02:27:34.207Z,48.73
2019-04-25T02:30:04.352Z,55.10
2019-04-25T02:32:34.397Z,46.63
2019-04-25T02:35:09.096Z,52.17
2019-04-25T02:37:35.197Z,49.20
2019-04-25T02:40:07.716Z,54.90
2019-04-25T02:42:35.683Z,52.93
2019-04-25T02:45:26.422Z,51.60
2019-04-25T02:48:14.121Z,48.73
2019-04-25T02:50:46.178Z,46.13
2019-04-25T02:53:36.324Z,49.87
2019-04-25T02:56:07.960Z,50.80
2019-04-25T02:58:34.241Z,47.23
2019-04-25T03:01:16.212Z,47.17
2019-04-25T03:03:35.042Z,43.97
2019-04-25T03:06:06.017Z,46.10
2019-04-25T03:08:35.453Z,48.90
2019-04-25T03:11:05.768Z,46.70
2019-04-25T03:13:34.371Z,48.10
2019-04-25T03:16:06.102Z,47.17
2019-04-25T03:18:34.950Z,49.57
2019-04-25T03:21:17.208Z,46.67
2019-04-25T03:23:46.377Z,47.60
2019-04-25T03:26:15.027Z,48.60
2019-04-25T03:28:43.905Z,47.70
2019-04-25T03:31:18.658Z,48.87
2019-04-25T03:33:45.980Z,48.67
2019-04-25T03:36:14.255Z,50.37
2019-04-25T03:38:44.188Z,51.07
2019-04-25T03:41:13.229Z,49.87
2019-04-25T03:43:44.224Z,49.90
2019-04-25T03:46:14.270Z,49.87
2019-04-25T03:48:44.059Z,47.80
2019-04-25T03:51:15.354Z,48.90
2019-04-25T03:53:43.743Z,50.90
2019-04-25T03:56:12.955Z,49.47
2019-04-25T03:58:43.904Z,54.97
2019-04-25T04:01:13.839Z,49.17
2019-04-25T04:03:44.021Z,51.50
2019-04-25T04:06:14.251Z,54.63
2019-04-25T04:08:44.268Z,51.03
2019-04-25T04:11:14.516Z,48.20
2019-04-25T04:13:43.968Z,49.70
2019-04-25T04:16:14.320Z,50.00
2019-04-25T04:18:44.960Z,49.07
2019-04-25T04:21:27.019Z,49.87
2019-04-25T04:24:00.286Z,50.63
2019-04-25T04:26:28.760Z,50.00
2019-04-25T04:28:57.190Z,50.03
2019-04-25T04:31:25.601Z,50.40
2019-04-25T04:33:54.033Z,52.97
2019-04-25T04:36:23.770Z,49.10
2019-04-25T04:38:52.731Z,50.00
2019-04-25T04:41:23.852Z,54.03
2019-04-25T04:43:54.024Z,49.67
2019-04-25T04:46:24.031Z,52.30
2019-04-25T04:48:54.079Z,49.50
2019-04-25T04:51:23.773Z,51.43
2019-04-25T04:53:53.689Z,50.10
2019-04-25T04:56:23.922Z,50.00
2019-04-25T04:58:53.968Z,51.00
2019-04-25T05:01:24.720Z,51.50
2019-04-25T05:03:54.917Z,48.57
2019-04-25T05:06:27.817Z,50.07
2019-04-25T05:08:57.931Z,50.90
2019-04-25T05:11:26.365Z,46.93
2019-04-25T05:13:54.772Z,46.80
2019-04-25T05:16:23.793Z,49.00
2019-04-25T05:18:55.090Z,46.90
2019-04-25T05:21:22.658Z,45.60
2019-04-25T05:23:51.040Z,49.43
2019-04-25T05:26:19.549Z,46.40
2019-04-25T05:28:47.956Z,45.50
2019-04-25T05:31:25.511Z,45.20
2019-04-25T05:33:54.109Z,46.33
2019-04-25T05:36:24.902Z,48.03
2019-04-25T05:38:53.899Z,45.87
2019-04-25T05:41:25.222Z,46.70
2019-04-25T05:43:53.700Z,44.90
2019-04-25T05:46:22.136Z,47.90
2019-04-25T05:48:50.542Z,45.80
2019-04-25T05:51:19.535Z,43.57
2019-04-25T05:53:48.127Z,44.07
2019-04-25T05:56:16.566Z,44.10
2019-04-25T05:58:44.974Z,45.37
2019-04-25T06:01:13.507Z,45.17
2019-04-25T06:03:41.903Z,48.93
2019-04-25T06:06:10.380Z,45.30
2019-04-25T06:08:40.454Z,43.63
2019-04-25T06:11:28.858Z,44.67
2019-04-25T06:14:02.980Z,43.80
2019-04-25T06:16:33.368Z,46.07
2019-04-25T06:19:13.603Z,42.60
2019-04-25T06:21:33.844Z,42.97
2019-04-25T06:24:15.524Z,46.40
2019-04-25T06:26:58.615Z,44.20
2019-04-25T06:29:27.025Z,43.37
2019-04-25T06:32:05.724Z,42.37
2019-04-25T06:34:28.388Z,43.57
2019-04-25T06:36:55.811Z,43.47
2019-04-25T06:39:25.329Z,43.30
2019-04-25T06:41:54.191Z,41.30
2019-04-25T06:44:29.963Z,43.40
2019-04-25T06:47:00.010Z,42.83
2019-04-25T06:49:30.081Z,41.10
2019-04-25T06:51:58.491Z,40.97
2019-04-25T06:54:28.047Z,40.87
2019-04-25T06:56:56.622Z,41.70
2019-04-25T06:59:27.224Z,41.70
2019-04-25T07:01:56.222Z,40.40
2019-04-25T07:04:26.448Z,40.10
2019-04-25T07:06:55.031Z,42.20
2019-04-25T07:09:26.788Z,40.50
2019-04-25T07:11:53.927Z,40.00
2019-04-25T07:14:24.833Z,39.57
2019-04-25T07:16:53.280Z,40.10
2019-04-25T07:19:21.961Z,41.27
2019-04-25T07:21:50.371Z,39.73
2019-04-25T07:24:18.826Z,39.83
2019-04-25T07:27:05.230Z,39.73
2019-04-25T07:29:35.714Z,39.50
2019-04-25T07:32:22.145Z,39.97
2019-04-25T07:34:50.646Z,39.63
2019-04-25T07:37:19.054Z,42.67
2019-04-25T07:39:47.557Z,39.10
2019-04-25T07:42:15.967Z,38.77
2019-04-25T07:44:52.262Z,38.80
2019-04-25T07:47:15.947Z,39.00
2019-04-25T07:49:44.535Z,39.67
2019-04-25T07:52:13.582Z,38.30
2019-04-25T07:54:47.984Z,38.80
2019-04-25T07:57:16.389Z,38.40
2019-04-25T07:59:44.817Z,38.30
2019-04-25T08:02:13.450Z,38.80
2019-04-25T08:04:41.904Z,39.70
2019-04-25T08:07:10.310Z,37.87
2019-04-25T08:09:38.741Z,38.83
2019-04-25T08:12:07.282Z,38.03
2019-04-25T08:14:54.230Z,37.83
2019-04-25T08:17:40.386Z,38.20
2019-04-25T08:20:09.255Z,39.00
2019-04-25T08:22:50.152Z,37.80
2019-04-25T08:25:08.151Z,37.27
2019-04-25T08:27:36.782Z,37.70
2019-04-25T08:30:06.677Z,37.47
2019-04-25T08:32:36.363Z,37.30
2019-04-25T08:35:06.032Z,37.47
2019-04-25T08:37:35.395Z,37.60
2019-04-25T08:40:06.433Z,37.20
2019-04-25T08:42:35.850Z,37.20
2019-04-25T08:45:06.875Z,37.00
2019-04-25T08:47:36.115Z,37.80
2019-04-25T08:50:26.349Z,36.83
2019-04-25T08:52:44.216Z,36.90
2019-04-25T08:55:31.360Z,37.60
2019-04-25T08:58:03.718Z,36.80
2019-04-25T09:00:35.736Z,37.00
2019-04-25T09:03:15.237Z,36.57
2019-04-25T09:05:46.232Z,37.20
2019-04-25T09:08:15.013Z,37.50
2019-04-25T09:10:44.804Z,37.00
2019-04-25T09:13:13.552Z,36.67
2019-04-25T09:15:41.903Z,36.40
2019-04-25T09:18:10.335Z,36.60
2019-04-25T09:20:40.880Z,37.57
2019-04-25T09:23:08.899Z,37.30
2019-04-25T09:25:37.301Z,37.00
2019-04-25T09:28:06.008Z,38.13
2019-04-25T09:30:35.832Z,36.70
2019-04-25T09:33:04.779Z,37.27
2019-04-25T09:35:33.652Z,36.90
2019-04-25T09:38:03.385Z,39.27
2019-04-25T09:40:31.861Z,39.23
2019-04-25T09:43:00.830Z,37.40
2019-04-25T09:45:33.833Z,38.77
2019-04-25T09:48:18.699Z,39.30
2019-04-25T09:50:48.743Z,38.87
2019-04-25T09:53:23.183Z,42.50
2019-04-25T09:55:55.727Z,38.50
2019-04-25T09:58:31.606Z,37.03
2019-04-25T10:01:10.438Z,38.07
2019-04-25T10:03:39.030Z,38.07
2019-04-25T10:06:07.503Z,37.80
2019-04-25T10:08:36.904Z,38.20
2019-04-25T10:11:05.529Z,38.50
2019-04-25T10:13:34.021Z,40.33
2019-04-25T10:16:05.074Z,39.50
2019-04-25T10:18:34.154Z,39.40
2019-04-25T10:21:04.854Z,37.90
2019-04-25T10:23:34.301Z,39.00
2019-04-25T10:26:03.813Z,39.63
2019-04-25T10:28:33.601Z,37.87
2019-04-25T10:31:03.561Z,39.57
2019-04-25T10:33:32.203Z,39.70
2019-04-25T10:36:01.190Z,38.07
2019-04-25T10:38:29.942Z,37.80
2019-04-25T10:40:58.531Z,39.57
2019-04-25T10:43:26.961Z,38.40
2019-04-25T10:45:55.428Z,37.77
2019-04-25T10:48:24.162Z,37.80
2019-04-25T10:50:55.433Z,38.00
2019-04-25T10:53:23.220Z,40.00
2019-04-25T10:55:53.071Z,37.90
2019-04-25T10:58:21.493Z,39.33
2019-04-25T11:00:52.832Z,38.90
2019-04-25T11:03:24.180Z,39.57
2019-04-25T11:05:55.663Z,37.53
2019-04-25T11:08:24.489Z,37.37
2019-04-25T11:10:54.930Z,37.00
2019-04-25T11:13:23.571Z,39.90
2019-04-25T11:15:52.116Z,39.00
2019-04-25T11:18:20.621Z,36.83
2019-04-25T11:20:50.298Z,38.53
2019-04-25T11:23:18.908Z,38.10
2019-04-25T11:25:47.377Z,38.00
2019-04-25T11:28:15.853Z,39.17
2019-04-25T11:30:46.753Z,37.57
2019-04-25T11:33:15.519Z,37.93
2019-04-25T11:35:46.608Z,37.90
2019-04-25T11:38:15.774Z,39.10
2019-04-25T11:40:48.088Z,38.90
2019-04-25T11:43:16.115Z,39.27
2019-04-25T11:45:45.937Z,37.43
2019-04-25T11:48:14.430Z,38.60
2019-04-25T11:50:46.126Z,37.63
2019-04-25T11:53:13.127Z,37.07
2019-04-25T11:55:42.579Z,44.53
2019-04-25T11:58:11.010Z,37.10
2019-04-25T12:00:39.439Z,37.83
2019-04-25T12:03:08.379Z,37.37
2019-04-25T12:05:36.811Z,37.20
2019-04-25T12:08:05.353Z,36.77
2019-04-25T12:10:34.596Z,38.50
2019-04-25T12:13:03.110Z,40.27
2019-04-25T12:15:33.265Z,39.43
2019-04-25T12:18:01.796Z,36.47
2019-04-25T12:20:30.291Z,38.07
2019-04-25T12:23:08.096Z,40.47
2019-04-25T12:25:28.924Z,36.87
2019-04-25T12:27:57.325Z,38.20
2019-04-25T12:30:37.402Z,37.30
2019-04-25T12:32:56.910Z,37.27
2019-04-25T12:35:25.400Z,37.83
2019-04-25T12:37:55.182Z,38.77
2019-04-25T12:40:24.289Z,37.30
2019-04-25T12:42:52.798Z,40.07
2019-04-25T12:45:37.865Z,37.53
2019-04-25T12:48:08.181Z,36.50
2019-04-25T12:50:36.619Z,38.37
2019-04-25T12:53:05.292Z,38.87
2019-04-25T12:55:34.251Z,38.00
2019-04-25T12:58:03.493Z,38.27
2019-04-25T13:00:32.186Z,36.77
2019-04-25T13:03:01.389Z,37.43
2019-04-25T13:05:30.067Z,36.87
2019-04-25T13:07:59.850Z,36.93
2019-04-25T13:10:28.600Z,41.07
2019-04-25T13:12:57.099Z,36.60
2019-04-25T13:15:27.039Z,36.93
2019-04-25T13:17:55.887Z,37.77
2019-04-25T13:20:24.294Z,37.50
2019-04-25T13:22:53.281Z,37.83
2019-04-25T13:25:24.292Z,36.60
2019-04-25T13:27:57.587Z,37.77
2019-04-25T13:30:31.189Z,37.80
2019-04-25T13:33:04.449Z,38.70
2019-04-25T13:35:34.540Z,37.40
2019-04-25T13:38:02.970Z,36.33
2019-04-25T13:40:31.378Z,37.07
2019-04-25T13:43:00.096Z,37.50
2019-04-25T13:45:28.724Z,38.10
2019-04-25T13:47:57.160Z,36.30
2019-04-25T13:50:26.097Z,38.40
2019-04-25T13:52:54.739Z,37.33
2019-04-25T13:55:23.990Z,39.20
2019-04-25T13:57:54.859Z,35.83
2019-04-25T14:00:25.133Z,38.40
2019-04-25T14:02:54.483Z,38.70
2019-04-25T14:05:24.931Z,38.00
2019-04-25T14:07:54.601Z,37.17
2019-04-25T14:10:25.021Z,38.40
2019-04-25T14:12:53.708Z,35.93
2019-04-25T14:15:25.134Z,36.53
2019-04-25T14:18:13.636Z,37.03
2019-04-25T14:20:56.058Z,38.00
2019-04-25T14:23:25.565Z,37.90
2019-04-25T14:25:54.173Z,35.70
2019-04-25T14:28:23.453Z,37.13
2019-04-25T14:30:52.876Z,36.57
2019-04-25T14:33:22.380Z,36.80
2019-04-25T14:35:54.625Z,35.97
2019-04-25T14:38:22.704Z,37.07
2019-04-25T14:40:51.791Z,35.97
2019-04-25T14:43:20.293Z,37.53
2019-04-25T14:45:48.767Z,40.17
2019-04-25T14:48:17.196Z,36.67
2019-04-25T14:50:45.595Z,36.47
2019-04-25T14:53:14.038Z,36.07
2019-04-25T14:55:52.810Z,37.90
2019-04-25T14:58:22.978Z,38.70
2019-04-25T15:00:52.236Z,37.00
2019-04-25T15:03:20.687Z,36.77
2019-04-25T15:05:49.093Z,40.03
2019-04-25T15:08:17.496Z,37.77
2019-04-25T15:10:48.341Z,35.97
2019-04-25T15:13:16.045Z,40.53
2019-04-25T15:15:44.541Z,37.27
2019-04-25T15:18:12.949Z,37.27
2019-04-25T15:20:41.372Z,37.80
2019-04-25T15:23:09.781Z,36.20
2019-04-25T15:25:39.212Z,37.30
2019-04-25T15:28:07.765Z,35.87
2019-04-25T15:30:38.299Z,37.40
2019-04-25T15:33:06.658Z,38.80
2019-04-25T15:35:45.634Z,39.70
2019-04-25T15:38:15.679Z,38.17
2019-04-25T15:40:54.318Z,39.20
2019-04-25T15:43:26.189Z,38.80
2019-04-25T15:45:56.158Z,37.43
2019-04-25T15:48:25.231Z,38.77
2019-04-25T15:50:55.382Z,35.70
2019-04-25T15:53:24.088Z,42.03
2019-04-25T15:55:53.530Z,42.57
2019-04-25T15:58:22.012Z,36.03
2019-04-25T16:00:50.503Z,37.20
2019-04-25T16:03:19.079Z,39.67
2019-04-25T16:05:47.584Z,42.53
2019-04-25T16:08:15.984Z,37.73
2019-04-25T16:10:44.415Z,41.40
2019-04-25T16:13:13.087Z,38.50
2019-04-25T16:15:41.630Z,39.73
2019-04-25T16:18:10.665Z,37.20
2019-04-25T16:20:39.101Z,41.43
2019-04-25T16:23:07.943Z,37.70
2019-04-25T16:25:36.371Z,36.47
2019-04-25T16:28:04.987Z,42.00
2019-04-25T16:30:34.581Z,37.80
2019-04-25T16:33:03.029Z,39.23
2019-04-25T16:35:31.457Z,37.37
2019-04-25T16:37:59.861Z,39.50
2019-04-25T16:40:28.681Z,39.00
2019-04-25T16:42:57.832Z,39.90
2019-04-25T16:45:26.313Z,37.97
2019-04-25T16:47:54.745Z,37.10
2019-04-25T16:50:23.914Z,37.20
2019-04-25T16:52:52.417Z,37.87
2019-04-25T16:55:20.895Z,40.50
2019-04-25T16:57:49.331Z,37.77
2019-04-25T17:00:36.267Z,37.13
2019-04-25T17:03:05.296Z,41.10
2019-04-25T17:05:34.939Z,36.97
2019-04-25T17:08:03.367Z,36.40
2019-04-25T17:10:32.797Z,41.40
2019-04-25T17:13:01.415Z,38.30
2019-04-25T17:15:41.062Z,36.03
2019-04-25T17:18:19.972Z,37.27
2019-04-25T17:20:50.085Z,37.77
2019-04-25T17:23:18.519Z,37.80
2019-04-25T17:25:46.986Z,41.00
2019-04-25T17:28:15.487Z,37.70
2019-04-25T17:30:45.531Z,38.60
2019-04-25T17:33:31.284Z,36.70
2019-04-25T17:36:08.266Z,37.00
2019-04-25T17:38:53.395Z,43.03
2019-04-25T17:41:21.795Z,40.00
2019-04-25T17:43:50.228Z,38.67
2019-04-25T17:46:20.266Z,42.57
2019-04-25T17:48:48.698Z,39.77
2019-04-25T17:51:17.103Z,38.30
2019-04-25T17:53:45.534Z,37.27
2019-04-25T17:56:14.010Z,37.50
2019-04-25T17:58:43.230Z,37.63
2019-04-25T18:01:13.861Z,39.13
2019-04-25T18:03:42.289Z,40.67
2019-04-25T18:06:10.702Z,40.37
2019-04-25T18:08:39.582Z,37.67
2019-04-25T18:11:08.546Z,39.17
2019-04-25T18:13:38.798Z,36.67
2019-04-25T18:16:08.810Z,44.03
2019-04-25T18:18:41.691Z,38.07
2019-04-25T18:21:10.159Z,37.20
2019-04-25T18:23:40.248Z,37.27
2019-04-25T18:26:15.792Z,40.10
2019-04-25T18:29:01.994Z,39.50
2019-04-25T18:31:30.397Z,39.40
2019-04-25T18:34:00.469Z,48.13
2019-04-25T18:36:37.398Z,38.70
2019-04-25T18:39:08.447Z,39.53
2019-04-25T18:41:41.796Z,41.43
2019-04-25T18:44:12.200Z,39.00
2019-04-25T18:46:42.571Z,38.20
2019-04-25T18:49:11.153Z,38.80
2019-04-25T18:51:40.631Z,38.27
2019-04-25T18:54:27.278Z,37.87
2019-04-25T18:57:09.297Z,41.80
2019-04-25T18:59:42.174Z,38.70
2019-04-25T19:02:18.081Z,40.50
2019-04-25T19:05:04.756Z,39.47
2019-04-25T19:07:33.230Z,41.60
2019-04-25T19:10:01.728Z,46.90
2019-04-25T19:12:30.132Z,41.17
2019-04-25T19:14:58.565Z,38.77
2019-04-25T19:17:26.973Z,39.87
2019-04-25T19:19:55.400Z,41.30
2019-04-25T19:22:23.801Z,40.97
2019-04-25T19:24:52.275Z,40.27
2019-04-25T19:27:23.922Z,39.57
2019-04-25T19:29:52.563Z,40.40
2019-04-25T19:32:21.004Z,39.80
2019-04-25T19:34:49.436Z,42.40
2019-04-25T19:37:17.841Z,42.27
2019-04-25T19:40:04.347Z,41.40
2019-04-25T19:42:34.404Z,41.67
2019-04-25T19:45:02.837Z,40.00
2019-04-25T19:47:31.235Z,42.23
2019-04-25T19:49:59.640Z,41.47
2019-04-25T19:52:29.714Z,40.50
2019-04-25T19:54:58.220Z,40.10
2019-04-25T19:57:26.652Z,43.17
2019-04-25T19:59:55.052Z,39.37
2019-04-25T20:02:33.942Z,40.23
2019-04-25T20:05:10.192Z,40.67
2019-04-25T20:07:42.552Z,40.70
2019-04-25T20:10:30.216Z,40.80
2019-04-25T20:12:58.627Z,42.80
2019-04-25T20:15:27.031Z,41.37
2019-04-25T20:17:55.458Z,40.50
2019-04-25T20:20:23.863Z,42.57
2019-04-25T20:22:52.457Z,40.17
2019-04-25T20:25:20.872Z,40.10
2019-04-25T20:27:49.308Z,41.13
2019-04-25T20:30:18.749Z,39.60
2019-04-25T20:32:47.363Z,41.67
2019-04-25T20:35:15.841Z,42.50
2019-04-25T20:37:44.927Z,43.00
2019-04-25T20:40:14.347Z,40.00
2019-04-25T20:42:42.776Z,40.00
2019-04-25T20:45:11.318Z,44.63
2019-04-25T20:47:39.751Z,42.27
2019-04-25T20:50:08.421Z,39.60
2019-04-25T20:52:38.199Z,39.87
2019-04-25T20:55:07.787Z,45.73
2019-04-25T20:57:36.219Z,40.77
2019-04-25T21:00:06.860Z,41.07
2019-04-25T21:02:35.292Z,43.43
2019-04-25T21:05:03.839Z,40.00
2019-04-25T21:07:32.267Z,40.93
2019-04-25T21:10:00.670Z,41.83
2019-04-25T21:12:29.866Z,40.77
2019-04-25T21:15:03.514Z,39.67
2019-04-25T21:17:33.826Z,41.50
2019-04-25T21:20:03.874Z,39.50
2019-04-25T21:22:32.303Z,39.70
2019-04-25T21:25:00.710Z,43.00
2019-04-25T21:27:29.184Z,41.47
2019-04-25T21:29:57.775Z,46.60
2019-04-25T21:32:26.206Z,39.40
2019-04-25T21:34:55.219Z,40.57
2019-04-25T21:37:24.256Z,40.80
2019-04-25T21:39:58.352Z,40.00
2019-04-25T21:42:31.364Z,44.67
2019-04-25T21:45:00.471Z,43.40
2019-04-25T21:47:28.959Z,45.20
2019-04-25T21:49:58.549Z,40.20
2019-04-25T21:52:27.313Z,46.23
2019-04-25T21:54:56.023Z,41.13
2019-04-25T21:57:25.103Z,41.17
2019-04-25T22:00:03.612Z,41.50
2019-04-25T22:02:24.017Z,43.73
2019-04-25T22:04:52.619Z,41.40
2019-04-25T22:07:21.894Z,43.33
2019-04-25T22:09:50.767Z,41.57
2019-04-25T22:12:19.418Z,41.10
2019-04-25T22:14:47.854Z,45.80
2019-04-25T22:17:16.427Z,42.27
2019-04-25T22:19:45.474Z,41.87
2019-04-25T22:22:14.273Z,42.83
2019-04-25T22:24:42.688Z,42.50
2019-04-25T22:27:12.730Z,42.13
2019-04-25T22:29:42.797Z,46.37
2019-04-25T22:32:12.845Z,43.53
2019-04-25T22:34:55.021Z,43.20
2019-04-25T22:37:23.498Z,48.00
2019-04-25T22:39:52.006Z,44.37
2019-04-25T22:42:20.407Z,47.00
2019-04-25T22:44:48.839Z,45.20
2019-04-25T22:47:17.714Z,46.80
2019-04-25T22:49:46.228Z,43.67
2019-04-25T22:52:14.913Z,44.70
2019-04-25T22:54:43.711Z,46.50
2019-04-25T22:57:12.722Z,46.63
2019-04-25T22:59:41.476Z,46.00
2019-04-25T23:02:26.520Z,45.50
2019-04-25T23:05:05.356Z,46.60
2019-04-25T23:07:26.962Z,52.23
2019-04-25T23:09:55.577Z,45.43
2019-04-25T23:12:24.167Z,46.23
2019-04-25T23:14:52.557Z,48.93
2019-04-25T23:17:20.993Z,47.80
2019-04-25T23:19:49.575Z,45.57
2019-04-25T23:22:18.008Z,50.63
2019-04-25T23:24:48.230Z,48.67
2019-04-25T23:27:27.270Z,48.67
2019-04-25T23:29:55.673Z,47.87
2019-04-25T23:32:24.279Z,48.77
2019-04-25T23:34:52.684Z,49.37
2019-04-25T23:37:21.115Z,47.80
2019-04-25T23:39:49.523Z,48.10
2019-04-25T23:42:17.966Z,51.10
2019-04-25T23:44:46.525Z,47.70
2019-04-25T23:47:14.957Z,54.03
2019-04-25T23:49:43.351Z,50.00
2019-04-25T23:52:12.993Z,51.27
2019-04-25T23:54:41.445Z,52.33
2019-04-25T23:57:10.043Z,48.00
2019-04-25T23:59:38.450Z,49.83
